Time;durP1;ratioP1;P1;durP2;ratioP2;P2;SDS_P1;SDS_P2;PMS_P1;PMS_P2;Temp;Humidity;BMP_temperature;BMP_pressure;BME280_temperature;BME280_humidity;BME280_pressure;Samples;Min_cycle;Max_cycle;Signal;HPM_P1;HPM_P2
2023/10/04 00:00:18;;;;;;;2.30;0.50;;;15.50;94.70;;;;;;5063557;28;20454;-85
2023/10/04 00:02:48;;;;;;;0.93;0.77;;;15.50;95.50;;;;;;5065380;28;20455;-85
2023/10/04 00:05:16;;;;;;;0.70;0.57;;;15.40;96.10;;;;;;5065043;28;21045;-86
2023/10/04 00:07:47;;;;;;;0.80;0.70;;;15.40;96.00;;;;;;5063295;28;20477;-86
2023/10/04 00:10:15;;;;;;;1.07;0.50;;;15.40;97.00;;;;;;5064920;28;20502;-85
2023/10/04 00:12:44;;;;;;;1.17;0.40;;;15.30;96.90;;;;;;5054936;28;20454;-86
2023/10/04 00:15:12;;;;;;;5.70;0.73;;;15.30;97.00;;;;;;5066311;28;20458;-85
2023/10/04 00:17:41;;;;;;;0.90;0.47;;;15.30;96.90;;;;;;5062576;28;20458;-85
2023/10/04 00:20:10;;;;;;;0.60;0.40;;;15.30;97.20;;;;;;5065729;28;20453;-86
2023/10/04 00:22:39;;;;;;;1.97;0.70;;;15.20;98.10;;;;;;5063929;28;20492;-85
2023/10/04 00:25:11;;;;;;;2.03;0.80;;;15.20;97.30;;;;;;5063019;28;20496;-85
2023/10/04 00:27:40;;;;;;;2.07;0.50;;;15.20;97.10;;;;;;5061179;28;20453;-86
2023/10/04 00:30:16;;;;;;;1.00;0.40;;;15.20;97.60;;;;;;5070364;28;20988;-85
2023/10/04 00:32:46;;;;;;;1.10;0.60;;;15.10;97.80;;;;;;5058019;28;20521;-86
2023/10/04 00:35:15;;;;;;;1.53;0.83;;;15.10;97.50;;;;;;5063838;28;20502;-86
2023/10/04 00:37:45;;;;;;;1.23;1.13;;;15.10;97.50;;;;;;5062333;28;20491;-85
2023/10/04 00:40:15;;;;;;;1.20;0.60;;;15.10;97.80;;;;;;5064451;28;20482;-86
2023/10/04 00:42:42;;;;;;;0.90;0.50;;;15.00;98.60;;;;;;5064570;28;20979;-86
2023/10/04 00:45:13;;;;;;;1.80;0.90;;;15.00;98.70;;;;;;5061537;28;20466;-86
2023/10/04 00:47:42;;;;;;;1.10;0.97;;;15.00;99.20;;;;;;5063292;28;20489;-86
2023/10/04 00:50:15;;;;;;;0.73;0.50;;;15.00;99.90;;;;;;5063592;28;20451;-86
2023/10/04 00:52:48;;;;;;;2.50;0.50;;;14.90;99.90;;;;;;5065113;28;20469;-86
2023/10/04 00:55:17;;;;;;;2.30;0.50;;;14.90;99.90;;;;;;5069319;28;20450;-87
2023/10/04 00:57:45;;;;;;;2.73;0.60;;;14.80;99.90;;;;;;5069311;28;20449;-85
2023/10/04 01:00:14;;;;;;;0.67;0.60;;;14.80;99.90;;;;;;5064832;28;20458;-86
2023/10/04 01:02:42;;;;;;;1.00;0.80;;;14.70;99.90;;;;;;5066923;28;21162;-85
2023/10/04 01:05:11;;;;;;;1.00;0.60;;;14.70;99.90;;;;;;5064442;28;20562;-87
2023/10/04 01:07:39;;;;;;;1.00;0.50;;;14.70;99.90;;;;;;5068849;28;20458;-85
2023/10/04 01:10:14;;;;;;;1.20;0.80;;;14.60;99.90;;;;;;5061084;28;20528;-87
2023/10/04 01:12:42;;;;;;;1.17;0.50;;;14.50;99.90;;;;;;5069037;28;20452;-86
2023/10/04 01:15:25;;;;;;;0.70;0.60;;;14.40;99.90;;;;;;5069480;28;20452;-86
2023/10/04 01:17:54;;;;;;;0.60;0.50;;;14.40;99.90;;;;;;5068839;28;20522;-86
2023/10/04 01:20:27;;;;;;;1.20;0.90;;;14.40;99.90;;;;;;5067853;28;20453;-87
2023/10/04 01:23:00;;;;;;;0.73;0.40;;;14.30;99.90;;;;;;5062780;28;20472;-87
2023/10/04 01:25:28;;;;;;;2.63;0.63;;;14.20;99.90;;;;;;5066535;28;20487;-87
2023/10/04 01:27:55;;;;;;;0.80;0.60;;;14.20;99.90;;;;;;5069294;28;20503;-86
2023/10/04 01:30:22;;;;;;;0.63;0.40;;;14.10;99.90;;;;;;5067771;28;20453;-86
2023/10/04 01:32:51;;;;;;;1.43;0.67;;;14.10;99.90;;;;;;5055461;28;20488;-86
2023/10/04 01:35:22;;;;;;;1.00;0.60;;;14.00;99.90;;;;;;5068800;28;20451;-86
2023/10/04 01:37:50;;;;;;;2.13;0.77;;;14.00;99.90;;;;;;5063460;28;20491;-87
2023/10/04 01:40:22;;;;;;;0.70;0.60;;;13.80;99.90;;;;;;5067070;28;20440;-86
2023/10/04 01:42:49;;;;;;;1.70;0.90;;;13.80;99.90;;;;;;5061829;28;20470;-86
2023/10/04 01:45:18;;;;;;;1.97;0.80;;;13.80;99.90;;;;;;5068763;28;20544;-86
2023/10/04 01:47:46;;;;;;;0.70;0.40;;;13.80;99.90;;;;;;5068442;28;20502;-86
2023/10/04 01:50:14;;;;;;;0.77;0.50;;;13.80;99.90;;;;;;5066660;28;20850;-86
2023/10/04 01:52:45;;;;;;;0.87;0.60;;;13.80;99.90;;;;;;5065707;28;20940;-87
2023/10/04 01:55:13;;;;;;;1.00;0.60;;;13.70;99.90;;;;;;5068377;28;20455;-86
2023/10/04 01:57:43;;;;;;;0.70;0.60;;;13.60;99.90;;;;;;5062671;28;20468;-86
2023/10/04 02:00:15;;;;;;;0.83;0.70;;;13.70;99.90;;;;;;5068497;28;20453;-86
2023/10/04 02:02:43;;;;;;;1.40;0.80;;;13.60;99.90;;;;;;5063038;28;20520;-87
2023/10/04 02:05:11;;;;;;;0.60;0.60;;;13.60;99.90;;;;;;5066506;28;20503;-86
2023/10/04 02:07:39;;;;;;;1.77;1.10;;;13.50;99.90;;;;;;5067514;28;20486;-87
2023/10/04 02:10:09;;;;;;;0.63;0.63;;;13.40;99.90;;;;;;5068165;28;20461;-86
2023/10/04 02:12:36;;;;;;;0.63;0.60;;;13.20;99.90;;;;;;5068581;28;20524;-86
2023/10/04 02:15:07;;;;;;;1.13;0.70;;;13.20;99.90;;;;;;5063031;28;20548;-86
2023/10/04 02:17:34;;;;;;;1.00;0.60;;;13.10;99.90;;;;;;5064748;28;20462;-86
2023/10/04 02:20:09;;;;;;;1.00;0.70;;;13.10;99.90;;;;;;5068471;28;20537;-86
2023/10/04 02:22:36;;;;;;;1.90;0.70;;;13.00;99.90;;;;;;5064403;28;20998;-86
2023/10/04 02:25:06;;;;;;;1.23;0.70;;;12.90;99.90;;;;;;5064241;28;20460;-86
2023/10/04 02:27:33;;;;;;;0.90;0.80;;;13.00;99.90;;;;;;5065358;28;20666;-87
2023/10/04 02:30:04;;;;;;;1.37;0.70;;;13.00;99.90;;;;;;5067143;28;20472;-86
2023/10/04 02:32:33;;;;;;;1.50;0.60;;;13.00;99.90;;;;;;5067008;28;20498;-86
2023/10/04 02:35:00;;;;;;;1.13;0.67;;;13.00;99.90;;;;;;5057182;28;20551;-86
2023/10/04 02:37:30;;;;;;;2.40;1.13;;;13.00;99.90;;;;;;5069748;28;20466;-86
2023/10/04 02:39:59;;;;;;;1.20;0.63;;;13.00;99.90;;;;;;5069431;28;20842;-86
2023/10/04 02:42:28;;;;;;;1.10;0.60;;;13.10;99.90;;;;;;5070485;28;20468;-86
2023/10/04 02:44:56;;;;;;;0.97;0.60;;;13.10;99.90;;;;;;5067967;28;20467;-86
2023/10/04 02:47:25;;;;;;;1.17;0.70;;;13.20;99.90;;;;;;5070173;28;20519;-86
2023/10/04 02:49:54;;;;;;;0.80;0.60;;;13.10;99.90;;;;;;5066546;28;20922;-87
2023/10/04 02:52:22;;;;;;;2.40;1.27;;;13.10;99.90;;;;;;5066831;28;20839;-87
2023/10/04 02:54:49;;;;;;;0.77;0.50;;;13.10;99.90;;;;;;5057881;28;20523;-86
2023/10/04 02:57:16;;;;;;;1.13;0.63;;;13.10;99.90;;;;;;5066021;28;21225;-85
2023/10/04 02:59:43;;;;;;;1.33;0.90;;;13.20;99.90;;;;;;5053773;28;21001;-86
2023/10/04 03:02:11;;;;;;;1.50;0.70;;;13.20;99.90;;;;;;5061409;28;20449;-85
2023/10/04 03:04:39;;;;;;;2.50;0.70;;;13.20;99.90;;;;;;5059154;28;20516;-86
2023/10/04 03:07:09;;;;;;;2.10;0.80;;;13.20;99.90;;;;;;5056834;28;20502;-86
2023/10/04 03:09:37;;;;;;;0.87;0.40;;;13.10;99.90;;;;;;5064918;28;20444;-86
2023/10/04 03:12:05;;;;;;;1.10;1.00;;;13.00;99.90;;;;;;5065412;28;20471;-86
2023/10/04 03:14:32;;;;;;;1.40;0.67;;;13.00;99.90;;;;;;5067006;28;20532;-86
2023/10/04 03:17:08;;;;;;;1.17;0.70;;;12.90;99.90;;;;;;5065528;28;20524;-86
2023/10/04 03:19:37;;;;;;;1.40;0.60;;;12.90;99.90;;;;;;5060356;28;20534;-86
2023/10/04 03:22:06;;;;;;;1.43;0.60;;;12.80;99.90;;;;;;5065421;28;20455;-86
2023/10/04 03:24:35;;;;;;;1.40;1.30;;;12.80;99.90;;;;;;5064703;28;20516;-86
2023/10/04 03:27:06;;;;;;;2.93;1.00;;;12.70;99.90;;;;;;5066201;28;20514;-87
2023/10/04 03:29:34;;;;;;;0.70;0.60;;;12.70;99.90;;;;;;5060621;28;21092;-86
2023/10/04 03:32:07;;;;;;;1.67;0.73;;;12.60;99.90;;;;;;5066793;28;20485;-86
2023/10/04 03:34:35;;;;;;;1.20;0.60;;;12.50;99.90;;;;;;5062799;28;21194;-86
2023/10/04 03:37:09;;;;;;;3.60;0.90;;;12.50;99.90;;;;;;5065385;28;20892;-87
2023/10/04 03:39:37;;;;;;;2.27;1.77;;;12.50;99.90;;;;;;5065129;28;20891;-87
2023/10/04 03:42:05;;;;;;;1.90;0.63;;;12.50;99.90;;;;;;5066583;28;20524;-86
2023/10/04 03:44:32;;;;;;;1.00;0.77;;;12.40;99.90;;;;;;5060426;28;21078;-86
2023/10/04 03:46:59;;;;;;;1.33;1.03;;;12.40;99.90;;;;;;5066188;28;20491;-87
2023/10/04 03:49:26;;;;;;;2.40;1.57;;;12.30;99.90;;;;;;5066288;28;20505;-86
2023/10/04 03:51:54;;;;;;;0.70;0.60;;;12.30;99.90;;;;;;5055350;28;20579;-87
2023/10/04 03:54:21;;;;;;;1.03;0.60;;;12.30;99.90;;;;;;5066499;28;20528;-87
2023/10/04 03:56:50;;;;;;;1.27;0.70;;;12.40;99.90;;;;;;5065972;28;20453;-86
2023/10/04 03:59:18;;;;;;;1.57;0.90;;;12.30;99.90;;;;;;5062765;28;21026;-87
2023/10/04 04:01:45;;;;;;;1.10;0.90;;;12.30;99.90;;;;;;5065554;28;20463;-87
2023/10/04 04:04:14;;;;;;;1.07;0.50;;;12.30;99.90;;;;;;5058945;28;20566;-86
2023/10/04 04:06:41;;;;;;;2.30;1.37;;;12.30;99.90;;;;;;5064043;28;20520;-87
2023/10/04 04:09:10;;;;;;;1.93;1.80;;;12.40;99.90;;;;;;5064997;28;20500;-87
2023/10/04 04:11:37;;;;;;;1.97;0.77;;;12.40;99.90;;;;;;5065787;28;20447;-87
2023/10/04 04:14:07;;;;;;;1.83;1.73;;;12.50;99.90;;;;;;5064293;28;20541;-86
2023/10/04 04:16:35;;;;;;;1.27;0.80;;;12.40;99.90;;;;;;5061151;28;20474;-87
2023/10/04 04:19:02;;;;;;;0.80;0.60;;;12.20;99.90;;;;;;5064988;28;20554;-87
2023/10/04 04:21:32;;;;;;;2.60;0.83;;;12.20;99.90;;;;;;5070612;28;20945;-87
2023/10/04 04:23:59;;;;;;;2.53;1.23;;;12.00;99.90;;;;;;5065257;28;20455;-86
2023/10/04 04:26:28;;;;;;;0.80;0.63;;;11.90;99.90;;;;;;5053190;28;20585;-87
2023/10/04 04:28:55;;;;;;;1.10;0.70;;;11.70;99.90;;;;;;5065394;28;20452;-87
2023/10/04 04:31:25;;;;;;;1.20;0.70;;;11.60;99.90;;;;;;5069014;28;20565;-86
2023/10/04 04:33:54;;;;;;;3.00;0.63;;;11.40;99.90;;;;;;5068793;28;21106;-87
2023/10/04 04:36:25;;;;;;;0.90;0.63;;;11.40;99.90;;;;;;5068474;28;20461;-86
2023/10/04 04:38:53;;;;;;;2.47;1.10;;;11.40;99.90;;;;;;5069877;28;20460;-88
2023/10/04 04:41:25;;;;;;;1.07;0.80;;;11.40;99.90;;;;;;5068530;28;20465;-86
2023/10/04 04:43:52;;;;;;;1.70;1.10;;;11.40;99.90;;;;;;5066001;28;20462;-86
2023/10/04 04:46:19;;;;;;;3.60;1.37;;;11.40;99.90;;;;;;5069018;28;20450;-86
2023/10/04 04:48:48;;;;;;;1.10;1.00;;;11.30;99.90;;;;;;5068123;28;20449;-86
2023/10/04 04:51:15;;;;;;;1.20;1.00;;;11.30;99.90;;;;;;5067370;28;21022;-85
2023/10/04 04:53:45;;;;;;;7.90;1.40;;;11.30;99.90;;;;;;5069942;28;20458;-85
2023/10/04 04:56:14;;;;;;;1.20;0.90;;;11.20;99.90;;;;;;5069507;28;20603;-85
2023/10/04 04:58:43;;;;;;;2.60;0.80;;;11.20;99.90;;;;;;5062754;28;20521;-85
2023/10/04 05:01:11;;;;;;;1.33;1.00;;;11.30;99.90;;;;;;5067163;28;20517;-84
2023/10/04 05:03:41;;;;;;;1.17;1.00;;;11.30;99.90;;;;;;5068968;28;21191;-84
2023/10/04 05:06:13;;;;;;;1.00;0.90;;;11.50;99.90;;;;;;5067795;28;20531;-85
2023/10/04 05:08:40;;;;;;;1.40;1.30;;;11.60;99.90;;;;;;5065013;28;20442;-86
2023/10/04 05:11:09;;;;;;;1.33;0.80;;;11.60;99.90;;;;;;5066912;28;20940;-86
2023/10/04 05:13:36;;;;;;;1.43;0.93;;;11.70;99.90;;;;;;5058963;28;20890;-87
2023/10/04 05:16:04;;;;;;;1.73;1.17;;;11.70;99.90;;;;;;5066510;28;20810;-88
2023/10/04 05:18:31;;;;;;;2.20;1.67;;;11.70;99.90;;;;;;5069126;28;20455;-86
2023/10/04 05:21:00;;;;;;;2.10;1.20;;;11.70;99.90;;;;;;5069062;28;20523;-87
2023/10/04 05:23:30;;;;;;;1.90;1.30;;;11.90;99.90;;;;;;5068461;28;20497;-87
2023/10/04 05:25:57;;;;;;;1.97;1.30;;;12.00;99.90;;;;;;5069482;28;20469;-86
2023/10/04 05:28:24;;;;;;;2.30;1.53;;;12.10;99.90;;;;;;5068618;28;20493;-86
2023/10/04 05:30:52;;;;;;;1.43;1.07;;;12.20;99.90;;;;;;5067834;28;20469;-88
2023/10/04 05:33:21;;;;;;;2.90;1.37;;;12.20;99.90;;;;;;5064357;28;20501;-86
2023/10/04 05:35:52;;;;;;;4.77;1.13;;;12.30;99.90;;;;;;5069176;28;20533;-87
2023/10/04 05:38:20;;;;;;;1.43;0.90;;;12.30;99.90;;;;;;5067657;28;20461;-88
2023/10/04 05:40:48;;;;;;;0.87;0.87;;;12.30;99.90;;;;;;5068336;28;20442;-87
2023/10/04 05:43:16;;;;;;;1.33;0.93;;;12.30;99.90;;;;;;5067109;28;20990;-88
2023/10/04 05:45:44;;;;;;;1.13;0.90;;;12.30;99.90;;;;;;5068455;28;20439;-87
2023/10/04 05:48:12;;;;;;;2.90;1.13;;;12.20;99.90;;;;;;5069539;28;20488;-87
2023/10/04 05:50:39;;;;;;;2.30;1.07;;;12.10;99.90;;;;;;5063935;28;20529;-86
2023/10/04 05:53:08;;;;;;;1.90;1.23;;;12.20;99.90;;;;;;5068643;28;20866;-86
2023/10/04 05:55:36;;;;;;;4.53;1.47;;;12.10;99.90;;;;;;5065728;28;20462;-88
2023/10/04 05:58:07;;;;;;;2.40;1.33;;;12.00;99.90;;;;;;5067410;28;20475;-86
2023/10/04 06:00:34;;;;;;;2.23;0.87;;;11.90;99.90;;;;;;5068171;28;20438;-87
2023/10/04 06:03:04;;;;;;;1.60;1.17;;;11.90;99.90;;;;;;5066293;28;20468;-87
2023/10/04 06:05:34;;;;;;;1.43;1.10;;;11.90;99.90;;;;;;5074458;28;20543;-87
2023/10/04 06:08:06;;;;;;;0.83;0.83;;;11.90;99.90;;;;;;5076091;28;20855;-87
2023/10/04 06:10:33;;;;;;;1.87;1.07;;;12.00;99.90;;;;;;5069643;28;20450;-87
2023/10/04 06:13:01;;;;;;;1.33;0.80;;;12.10;99.90;;;;;;5066960;28;20513;-87
2023/10/04 06:15:30;;;;;;;3.13;0.93;;;12.10;99.90;;;;;;5068803;28;20855;-86
2023/10/04 06:17:59;;;;;;;2.70;1.20;;;12.20;99.90;;;;;;5068312;28;20471;-85
2023/10/04 06:20:28;;;;;;;2.40;1.17;;;12.30;99.90;;;;;;5055230;28;20447;-87
2023/10/04 06:22:57;;;;;;;1.87;1.13;;;12.40;99.90;;;;;;5067798;28;20466;-85
2023/10/04 06:25:25;;;;;;;1.27;1.00;;;12.60;99.90;;;;;;5068151;28;20925;-87
2023/10/04 06:27:52;;;;;;;1.73;1.27;;;12.70;99.90;;;;;;5067706;28;20493;-87
2023/10/04 06:30:23;;;;;;;2.23;1.17;;;13.00;99.90;;;;;;5062862;28;20459;-86
2023/10/04 06:32:53;;;;;;;0.90;0.73;;;13.20;99.90;;;;;;5067298;28;21005;-86
2023/10/04 06:35:23;;;;;;;1.30;0.80;;;13.20;99.90;;;;;;5064085;28;20461;-87
2023/10/04 06:37:51;;;;;;;1.30;1.20;;;13.20;99.90;;;;;;5070011;28;20460;-86
2023/10/04 06:40:19;;;;;;;1.03;0.80;;;13.10;99.90;;;;;;5061107;28;20548;-86
2023/10/04 06:42:47;;;;;;;1.07;0.97;;;13.10;99.90;;;;;;5067190;28;20462;-87
2023/10/04 06:45:14;;;;;;;2.07;1.33;;;13.10;99.90;;;;;;5067870;28;20447;-87
2023/10/04 06:47:44;;;;;;;0.97;0.70;;;13.10;99.90;;;;;;5060597;28;21000;-86
2023/10/04 06:50:18;;;;;;;1.57;1.20;;;13.20;99.90;;;;;;5064563;28;20557;-87
2023/10/04 06:52:47;;;;;;;2.20;1.10;;;13.20;99.90;;;;;;5067618;28;20443;-88
2023/10/04 06:55:14;;;;;;;1.13;1.00;;;13.30;99.90;;;;;;5066672;28;20552;-87
2023/10/04 06:57:41;;;;;;;2.93;1.03;;;13.30;99.90;;;;;;5054505;28;21783;-87
2023/10/04 07:00:16;;;;;;;1.30;1.17;;;13.40;99.90;;;;;;5062016;28;21078;-87
2023/10/04 07:02:44;;;;;;;2.10;1.00;;;13.50;99.90;;;;;;5066948;28;20470;-87
2023/10/04 07:05:16;;;;;;;1.60;0.80;;;13.60;99.90;;;;;;5065183;28;20525;-87
2023/10/04 07:07:43;;;;;;;1.13;0.90;;;13.70;99.90;;;;;;5063488;28;20487;-88
2023/10/04 07:10:14;;;;;;;2.00;1.50;;;13.70;99.90;;;;;;5067106;28;20501;-87
2023/10/04 07:12:42;;;;;;;1.30;1.00;;;13.90;99.90;;;;;;5067233;28;20813;-87
2023/10/04 07:15:10;;;;;;;1.57;0.90;;;14.00;99.90;;;;;;5066113;28;20500;-88
2023/10/04 07:17:39;;;;;;;1.77;1.07;;;14.00;99.90;;;;;;5058803;28;20492;-87
2023/10/04 07:20:07;;;;;;;1.13;1.03;;;14.20;99.90;;;;;;5064515;28;20968;-87
2023/10/04 07:22:36;;;;;;;2.40;1.37;;;14.20;99.90;;;;;;5062137;28;20466;-87
2023/10/04 07:25:07;;;;;;;1.67;1.50;;;14.20;99.90;;;;;;5062923;28;20448;-87
2023/10/04 07:27:34;;;;;;;14.63;1.40;;;14.20;99.90;;;;;;5059621;28;21494;-89
2023/10/04 07:30:04;;;;;;;3.50;1.10;;;14.00;99.90;;;;;;5066244;28;20468;-86
2023/10/04 07:32:31;;;;;;;1.33;0.90;;;13.90;99.90;;;;;;5063150;28;20565;-87
2023/10/04 07:34:59;;;;;;;1.43;1.33;;;13.80;99.90;;;;;;5052504;28;20469;-88
2023/10/04 07:37:26;;;;;;;1.87;1.70;;;13.80;99.90;;;;;;5061154;28;20565;-87
2023/10/04 07:39:54;;;;;;;2.17;1.27;;;13.80;99.90;;;;;;5061153;28;20540;-87
2023/10/04 07:42:22;;;;;;;2.20;1.27;;;13.80;99.90;;;;;;5066562;28;20801;-86
2023/10/04 07:44:49;;;;;;;1.73;1.53;;;14.10;99.90;;;;;;5064363;28;20542;-86
2023/10/04 07:47:17;;;;;;;1.93;1.37;;;14.40;99.90;;;;;;5066631;28;20544;-86
2023/10/04 07:49:44;;;;;;;1.47;1.07;;;14.80;99.90;;;;;;5062075;28;21147;-87
2023/10/04 07:52:11;;;;;;;1.20;1.10;;;15.10;99.90;;;;;;5061452;28;20450;-88
2023/10/04 07:54:38;;;;;;;1.60;1.07;;;15.50;99.90;;;;;;5059457;28;20494;-87
2023/10/04 07:57:06;;;;;;;1.13;0.90;;;15.70;99.90;;;;;;5065540;28;20515;-88
2023/10/04 07:59:33;;;;;;;1.00;0.90;;;16.10;99.90;;;;;;5065964;28;20522;-87
2023/10/04 08:02:00;;;;;;;3.00;2.37;;;16.30;99.90;;;;;;5066027;28;20451;-88
2023/10/04 08:04:28;;;;;;;2.40;1.27;;;16.20;98.60;;;;;;5066037;28;20878;-88
2023/10/04 08:06:55;;;;;;;1.17;0.80;;;16.20;98.20;;;;;;5070552;28;20533;-87
2023/10/04 08:09:22;;;;;;;3.50;2.20;;;16.20;99.30;;;;;;5067309;28;20501;-88
2023/10/04 08:11:52;;;;;;;1.23;1.13;;;16.10;99.90;;;;;;5065057;28;21039;-86
2023/10/04 08:14:22;;;;;;;4.63;2.03;;;15.90;99.50;;;;;;5066385;28;20442;-86
2023/10/04 08:16:52;;;;;;;3.33;1.03;;;15.80;98.20;;;;;;5067680;28;20461;-88
2023/10/04 08:19:20;;;;;;;3.87;0.90;;;16.00;99.90;;;;;;5071168;28;20937;-86
2023/10/04 08:21:47;;;;;;;3.30;1.70;;;16.00;98.10;;;;;;5070020;28;20441;-87
2023/10/04 08:24:14;;;;;;;1.70;0.87;;;16.00;99.80;;;;;;5068580;28;20969;-88
2023/10/04 08:26:41;;;;;;;2.90;1.40;;;16.00;99.40;;;;;;5063120;28;20932;-87
2023/10/04 08:29:09;;;;;;;7.60;1.10;;;15.90;98.60;;;;;;5069179;28;20488;-87
2023/10/04 08:31:37;;;;;;;2.20;1.53;;;15.90;97.60;;;;;;5063054;28;20489;-87
2023/10/04 08:34:04;;;;;;;2.97;0.83;;;15.90;97.50;;;;;;5070114;28;20459;-87
2023/10/04 08:36:33;;;;;;;3.40;1.07;;;15.80;98.20;;;;;;5063136;28;20466;-86
2023/10/04 08:39:09;;;;;;;1.70;1.07;;;15.90;98.10;;;;;;5070288;28;20448;-87
2023/10/04 08:41:36;;;;;;;1.00;0.80;;;15.90;96.00;;;;;;5069289;28;20578;-87
2023/10/04 08:44:05;;;;;;;2.27;0.93;;;16.30;96.20;;;;;;5066472;28;20504;-86
2023/10/04 08:46:34;;;;;;;1.57;1.23;;;16.40;96.80;;;;;;5069169;28;20458;-87
2023/10/04 08:49:04;;;;;;;3.63;1.47;;;16.50;94.70;;;;;;5067184;28;20490;-86
2023/10/04 08:51:42;;;;;;;1.93;1.13;;;16.70;96.70;;;;;;5065432;28;20471;-86
2023/10/04 08:54:15;;;;;;;3.43;1.30;;;16.80;96.50;;;;;;5065220;28;20450;-86
2023/10/04 08:56:49;;;;;;;1.03;0.80;;;16.70;95.20;;;;;;5068029;28;20535;-86
2023/10/04 08:59:17;;;;;;;1.43;0.80;;;16.80;94.50;;;;;;5065559;28;20562;-87
2023/10/04 09:01:46;;;;;;;1.30;0.90;;;16.70;92.90;;;;;;5054876;28;20471;-86
2023/10/04 09:04:15;;;;;;;1.20;0.80;;;16.80;92.10;;;;;;5064020;28;20468;-87
2023/10/04 09:06:42;;;;;;;3.43;0.80;;;16.90;91.80;;;;;;5065539;28;20447;-86
2023/10/04 09:09:11;;;;;;;1.93;1.03;;;17.00;90.50;;;;;;5068633;28;20526;-86
2023/10/04 09:11:38;;;;;;;2.80;1.50;;;16.90;85.70;;;;;;5068147;28;21121;-86
2023/10/04 09:14:06;;;;;;;1.20;1.00;;;16.50;86.60;;;;;;5066163;28;20447;-86
2023/10/04 09:16:33;;;;;;;2.03;0.90;;;16.40;90.40;;;;;;5066443;28;20873;-87
2023/10/04 09:19:06;;;;;;;1.50;1.20;;;16.30;90.50;;;;;;5070893;28;20487;-85
2023/10/04 09:21:38;;;;;;;0.97;0.70;;;16.40;90.80;;;;;;5075855;28;20961;-86
2023/10/04 09:24:09;;;;;;;1.00;0.87;;;16.60;87.40;;;;;;5079624;28;20446;-87
2023/10/04 09:26:38;;;;;;;2.87;1.17;;;16.40;87.50;;;;;;5077730;28;20464;-86
2023/10/04 09:29:06;;;;;;;2.00;1.27;;;16.00;88.70;;;;;;5065791;28;20537;-87
2023/10/04 09:31:48;;;;;;;2.33;0.90;;;16.00;91.30;;;;;;5068895;28;20483;-86
2023/10/04 09:34:16;;;;;;;1.00;0.70;;;16.30;90.80;;;;;;5070096;28;20931;-86
2023/10/04 09:36:45;;;;;;;1.53;0.70;;;16.70;91.30;;;;;;5066514;28;20874;-86
2023/10/04 09:39:15;;;;;;;1.37;1.10;;;16.80;88.60;;;;;;5069220;28;20471;-86
2023/10/04 09:41:43;;;;;;;1.67;0.80;;;16.70;84.10;;;;;;5066537;28;20455;-87
2023/10/04 09:44:26;;;;;;;1.73;1.13;;;16.50;86.50;;;;;;5065348;28;20468;-87
2023/10/04 09:46:59;;;;;;;0.80;0.70;;;16.40;88.50;;;;;;5068907;28;20444;-87
2023/10/04 09:49:29;;;;;;;2.80;1.67;;;16.40;88.10;;;;;;5070096;28;20484;-87
2023/10/04 09:51:59;;;;;;;3.43;1.10;;;16.20;91.70;;;;;;5068964;28;21129;-87
2023/10/04 09:54:28;;;;;;;1.10;0.80;;;16.20;89.90;;;;;;5064901;28;20463;-87
2023/10/04 09:56:55;;;;;;;2.20;1.07;;;16.50;91.50;;;;;;5067580;28;20988;-87
2023/10/04 09:59:23;;;;;;;3.23;1.00;;;16.90;90.50;;;;;;5065666;28;20947;-87
2023/10/04 10:01:55;;;;;;;1.43;1.17;;;16.80;82.70;;;;;;5068064;28;20497;-87
2023/10/04 10:04:27;;;;;;;1.90;0.77;;;16.80;87.40;;;;;;5063062;28;20553;-86
2023/10/04 10:07:09;;;;;;;2.87;0.83;;;16.90;86.30;;;;;;5064682;28;20460;-87
2023/10/04 10:09:40;;;;;;;1.77;0.97;;;17.20;86.40;;;;;;5068687;28;20479;-88
2023/10/04 10:12:08;;;;;;;1.53;0.80;;;17.00;84.70;;;;;;5063099;28;20997;-87
2023/10/04 10:14:36;;;;;;;3.70;1.70;;;17.00;86.70;;;;;;5067398;28;20444;-89
2023/10/04 10:17:04;;;;;;;2.67;1.30;;;17.00;86.40;;;;;;5061228;28;20465;-88
2023/10/04 10:19:31;;;;;;;1.20;0.70;;;17.10;85.90;;;;;;5061107;28;20565;-87
2023/10/04 10:22:08;;;;;;;0.83;0.83;;;17.20;86.90;;;;;;5068574;28;20456;-87
2023/10/04 10:24:44;;;;;;;3.03;1.80;;;17.10;84.80;;;;;;5066652;28;20590;-89
2023/10/04 10:27:14;;;;;;;1.13;1.03;;;17.00;86.10;;;;;;5064768;28;20447;-91
2023/10/04 10:29:42;;;;;;;1.27;1.00;;;17.00;87.00;;;;;;5068280;28;20572;-90
2023/10/04 10:32:14;;;;;;;2.20;1.37;;;17.50;86.70;;;;;;5058214;28;20538;-88
2023/10/04 10:34:43;;;;;;;1.90;0.73;;;17.40;85.50;;;;;;5067699;28;20455;-89
2023/10/04 10:37:18;;;;;;;2.83;0.80;;;17.90;86.00;;;;;;5062786;28;20475;-88
2023/10/04 10:39:47;;;;;;;4.60;1.57;;;18.20;84.90;;;;;;5067038;28;20444;-87
2023/10/04 10:42:14;;;;;;;1.97;1.20;;;18.10;82.40;;;;;;5067469;28;20455;-88
2023/10/04 10:44:42;;;;;;;1.97;0.87;;;18.30;80.90;;;;;;5063525;28;20461;-90
2023/10/04 10:47:16;;;;;;;1.37;1.10;;;18.50;85.80;;;;;;5066704;28;20505;-89
2023/10/04 10:49:55;;;;;;;1.73;0.87;;;18.40;74.70;;;;;;5066495;28;20479;-88
2023/10/04 10:52:43;;;;;;;1.43;1.27;;;18.30;77.70;;;;;;5065464;28;20435;-88
2023/10/04 10:55:16;;;;;;;1.00;0.73;;;18.00;79.60;;;;;;5064053;28;20468;-88
2023/10/04 10:57:47;;;;;;;2.23;0.80;;;17.60;79.30;;;;;;5061100;28;20916;-88
2023/10/04 11:00:19;;;;;;;1.20;0.80;;;17.50;76.90;;;;;;5061264;28;20468;-88
2023/10/04 11:02:48;;;;;;;4.27;1.00;;;17.40;79.80;;;;;;5063690;28;20509;-90
2023/10/04 11:05:16;;;;;;;2.13;0.87;;;17.40;80.50;;;;;;5066001;28;20612;-89
2023/10/04 11:07:47;;;;;;;2.10;0.87;;;17.30;80.30;;;;;;5066957;28;21179;-91
2023/10/04 11:10:16;;;;;;;1.37;0.80;;;17.50;77.00;;;;;;5060869;28;20492;-88
2023/10/04 11:12:43;;;;;;;1.70;0.87;;;17.40;76.10;;;;;;5066464;28;21044;-88
2023/10/04 11:15:11;;;;;;;1.17;0.80;;;17.80;75.40;;;;;;5065617;28;20463;-88
2023/10/04 11:17:39;;;;;;;1.17;0.77;;;18.30;73.90;;;;;;5055006;28;20523;-90
2023/10/04 11:20:09;;;;;;;1.30;0.80;;;18.60;65.60;;;;;;5063380;28;20455;-89
2023/10/04 11:22:37;;;;;;;3.80;0.60;;;18.40;67.40;;;;;;5065022;28;20444;-87
2023/10/04 11:25:07;;;;;;;0.67;0.50;;;18.40;69.70;;;;;;5066314;28;20474;-89
2023/10/04 11:27:35;;;;;;;0.93;0.53;;;18.10;69.30;;;;;;5063802;28;20525;-87
2023/10/04 11:30:04;;;;;;;0.83;0.70;;;17.90;69.50;;;;;;5066968;28;20527;-89
2023/10/04 11:32:32;;;;;;;1.07;0.83;;;17.80;71.30;;;;;;5067027;28;20475;-88
2023/10/04 11:35:07;;;;;;;2.00;1.00;;;17.60;71.50;;;;;;5062445;28;20505;-91
2023/10/04 11:37:38;;;;;;;1.90;1.00;;;17.50;71.20;;;;;;5064283;28;21034;-88
2023/10/04 11:40:10;;;;;;;1.40;0.70;;;17.40;72.20;;;;;;5067216;28;21043;-88
2023/10/04 11:42:37;;;;;;;0.90;0.60;;;17.40;72.50;;;;;;5066972;28;20530;-88
2023/10/04 11:45:17;;;;;;;0.80;0.73;;;17.50;70.40;;;;;;5065488;28;20460;-89
2023/10/04 11:47:45;;;;;;;10.67;1.80;;;17.80;71.10;;;;;;5066488;28;20494;-88
2023/10/04 11:50:13;;;;;;;1.20;0.73;;;18.20;71.70;;;;;;5064571;28;20611;-87
2023/10/04 11:52:41;;;;;;;0.67;0.67;;;18.50;66.40;;;;;;5066112;28;20507;-90
2023/10/04 11:55:27;;;;;;;0.80;0.60;;;18.60;63.60;;;;;;5067312;28;20443;-89
2023/10/04 11:58:05;;;;;;;1.57;0.77;;;18.60;59.50;;;;;;5065158;28;20436;-88
2023/10/04 12:00:32;;;;;;;2.00;1.10;;;18.80;60.70;;;;;;5056011;28;20491;-88
2023/10/04 12:03:00;;;;;;;1.67;0.70;;;19.20;61.10;;;;;;5066130;28;20464;-88
2023/10/04 12:05:27;;;;;;;0.70;0.70;;;19.20;59.80;;;;;;5064761;28;20483;-89
2023/10/04 12:07:58;;;;;;;0.93;0.50;;;19.10;59.50;;;;;;5065406;28;21020;-88
2023/10/04 12:10:27;;;;;;;1.13;0.70;;;19.20;59.30;;;;;;5066492;28;20554;-88
2023/10/04 12:12:57;;;;;;;3.67;1.20;;;19.30;58.80;;;;;;5065274;28;21235;-88
2023/10/04 12:15:24;;;;;;;1.80;0.80;;;19.60;61.00;;;;;;5066212;28;20456;-87
2023/10/04 12:17:51;;;;;;;0.93;0.60;;;19.50;57.10;;;;;;5064411;28;20468;-88
2023/10/04 12:20:20;;;;;;;3.47;0.80;;;19.90;58.10;;;;;;5053662;28;20528;-88
2023/10/04 12:22:48;;;;;;;1.90;0.77;;;19.90;55.50;;;;;;5066468;28;20445;-87
2023/10/04 12:25:15;;;;;;;1.00;0.90;;;19.90;59.70;;;;;;5064673;28;20490;-87
2023/10/04 12:27:44;;;;;;;0.70;0.60;;;19.80;58.40;;;;;;5063749;28;20452;-88
2023/10/04 12:30:14;;;;;;;0.80;0.80;;;19.80;57.90;;;;;;5065461;28;20570;-88
2023/10/04 12:32:41;;;;;;;0.70;0.60;;;19.70;58.70;;;;;;5061514;28;20558;-90
2023/10/04 12:35:13;;;;;;;1.47;0.87;;;19.60;57.30;;;;;;5065272;28;20473;-89
2023/10/04 12:37:40;;;;;;;1.97;1.00;;;19.60;59.00;;;;;;5064098;28;21000;-86
2023/10/04 12:40:17;;;;;;;1.20;0.73;;;19.60;59.40;;;;;;5062923;28;20504;-89
2023/10/04 12:42:45;;;;;;;1.23;0.70;;;19.50;58.50;;;;;;5069494;28;20532;-86
2023/10/04 12:45:13;;;;;;;0.83;0.63;;;19.50;58.20;;;;;;5064214;28;20471;-88
2023/10/04 12:47:42;;;;;;;1.90;0.80;;;19.50;57.00;;;;;;5068637;28;20486;-87
2023/10/04 12:50:13;;;;;;;0.80;0.53;;;19.50;55.80;;;;;;5066988;28;21273;-88
2023/10/04 12:52:40;;;;;;;1.60;1.47;;;19.40;56.50;;;;;;5068992;28;20789;-90
2023/10/04 12:55:08;;;;;;;1.07;0.80;;;19.60;56.70;;;;;;5070440;28;20476;-89
2023/10/04 12:57:36;;;;;;;0.80;0.60;;;19.40;57.10;;;;;;5070074;28;20465;-87